TimeEST,TemperatureF,Dew PointF,Humidity,Sea Level PressureIn,VisibilityMPH,Wind Direction,Wind SpeedMPH,Gust SpeedMPH,PrecipitationIn,Events,Conditions,WindDirDegrees,DateUTC
12:15 AM,62.6,62.6,100,29.99,0.5,Calm,Calm,-,N/A,Fog,Fog,0,2012-12-10 05:15:00
12:35 AM,60.8,60.8,100,29.98,0.5,Calm,Calm,-,N/A,Fog,Fog,0,2012-12-10 05:35:00
12:55 AM,60.8,60.8,100,29.98,0.2,Calm,Calm,-,N/A,Fog,Fog,0,2012-12-10 05:55:00
1:15 AM,60.8,60.8,100,29.97,0.5,SW,3.5,-,N/A,Fog,Fog,230,2012-12-10 06:15:00
1:35 AM,60.8,60.8,100,29.97,5.0,Calm,Calm,-,N/A,,Scattered Clouds,0,2012-12-10 06:35:00
1:55 AM,60.8,60.8,100,29.96,1.8,SE,4.6,-,N/A,,Mist,140,2012-12-10 06:55:00
2:15 AM,60.8,60.8,100,29.96,1.0,Calm,Calm,-,N/A,,Mostly Cloudy,0,2012-12-10 07:15:00
2:35 AM,60.8,60.8,100,29.96,0.2,South,3.5,-,N/A,Fog,Fog,190,2012-12-10 07:35:00
2:55 AM,62.6,62.6,100,29.95,0.2,SSW,3.5,-,N/A,Fog,Fog,200,2012-12-10 07:55:00
3:15 AM,62.6,62.6,100,29.95,0.2,SW,3.5,-,N/A,,Drizzle,230,2012-12-10 08:15:00
3:35 AM,62.6,62.6,100,29.94,0.2,SSW,3.5,-,N/A,,Light Drizzle,210,2012-12-10 08:35:00
3:55 AM,62.6,62.6,100,29.94,1.5,SSW,4.6,-,N/A,,Overcast,200,2012-12-10 08:55:00
4:15 AM,62.6,62.6,100,29.94,3.0,SSW,3.5,-,N/A,,Overcast,210,2012-12-10 09:15:00
4:35 AM,62.6,62.6,100,29.94,3.0,SSW,4.6,-,N/A,,Overcast,210,2012-12-10 09:35:00
4:55 AM,62.6,62.6,100,29.93,0.8,SSW,3.5,-,N/A,,Overcast,200,2012-12-10 09:55:00
5:15 AM,62.6,62.6,100,29.93,1.0,SSW,3.5,-,N/A,,Overcast,210,2012-12-10 10:15:00
5:35 AM,62.6,62.6,100,29.93,0.5,SSW,4.6,-,N/A,Fog,Fog,210,2012-12-10 10:35:00
5:55 AM,62.6,62.6,100,29.93,0.5,SW,5.8,-,N/A,Fog,Fog,220,2012-12-10 10:55:00
6:15 AM,62.6,62.6,100,29.94,0.2,SW,3.5,-,N/A,Fog,Fog,220,2012-12-10 11:15:00
6:35 AM,62.6,62.6,100,29.93,1.0,SW,4.6,-,N/A,,Overcast,230,2012-12-10 11:35:00
7:15 AM,62.6,62.6,100,29.94,7.0,WSW,9.2,-,N/A,,Overcast,250,2012-12-10 12:15:00
7:55 AM,62.6,62.6,100,29.93,10.0,SW,5.8,-,N/A,,Mostly Cloudy,220,2012-12-10 12:55:00
8:15 AM,62.6,62.6,100,29.93,10.0,SSW,5.8,-,N/A,,Overcast,210,2012-12-10 13:15:00
8:35 AM,64.4,64.4,100,29.93,10.0,SW,5.8,-,N/A,,Scattered Clouds,220,2012-12-10 13:35:00
8:55 AM,64.4,64.4,100,29.93,10.0,SSW,6.9,-,N/A,,Scattered Clouds,210,2012-12-10 13:55:00
9:15 AM,68.0,62.6,83,29.93,10.0,South,8.1,-,N/A,,Scattered Clouds,190,2012-12-10 14:15:00
9:35 AM,66.2,62.6,88,29.93,10.0,SSW,5.8,-,N/A,,Scattered Clouds,210,2012-12-10 14:35:00
9:55 AM,68.0,62.6,83,29.93,10.0,SSW,8.1,-,N/A,,Clear,210,2012-12-10 14:55:00
10:15 AM,69.8,60.8,73,29.92,10.0,South,12.7,-,N/A,,Clear,180,2012-12-10 15:15:00
10:35 AM,71.6,60.8,69,29.92,10.0,SSW,11.5,-,N/A,,Clear,200,2012-12-10 15:35:00
10:55 AM,69.8,60.8,73,29.92,10.0,SSW,8.1,-,N/A,,Clear,210,2012-12-10 15:55:00
11:35 AM,71.6,59.0,64,29.91,10.0,South,13.8,19.6,N/A,,Mostly Cloudy,190,2012-12-10 16:35:00
11:55 AM,71.6,59.0,64,29.90,10.0,SSW,10.4,16.1,N/A,,Mostly Cloudy,210,2012-12-10 16:55:00
12:15 PM,69.8,59.0,68,29.89,10.0,SSW,10.4,-,N/A,,Mostly Cloudy,210,2012-12-10 17:15:00
12:55 PM,71.6,55.4,57,29.87,10.0,WSW,9.2,-,N/A,,Clear,250,2012-12-10 17:55:00
1:15 PM,71.6,55.4,57,29.85,10.0,SW,9.2,-,N/A,,Clear,230,2012-12-10 18:15:00
1:55 PM,73.4,55.4,53,29.83,10.0,SW,4.6,-,N/A,,Clear,230,2012-12-10 18:55:00
2:15 PM,73.4,55.4,53,29.83,10.0,SW,8.1,-,N/A,,Clear,220,2012-12-10 19:15:00
2:35 PM,73.4,55.4,53,29.84,10.0,SW,8.1,-,N/A,,Clear,220,2012-12-10 19:35:00
2:55 PM,73.4,55.4,53,29.83,10.0,SSW,9.2,-,N/A,,Clear,200,2012-12-10 19:55:00
3:15 PM,73.4,55.4,53,29.82,10.0,SSE,8.1,-,N/A,,Clear,160,2012-12-10 20:15:00
3:35 PM,73.4,57.2,57,29.82,10.0,South,8.1,-,N/A,,Clear,180,2012-12-10 20:35:00
3:55 PM,73.4,57.2,57,29.81,10.0,SSE,8.1,-,N/A,,Clear,150,2012-12-10 20:55:00
4:15 PM,71.6,55.4,57,29.81,10.0,South,9.2,-,N/A,,Clear,170,2012-12-10 21:15:00
4:35 PM,71.6,57.2,60,29.80,10.0,South,8.1,-,N/A,,Clear,170,2012-12-10 21:35:00
4:55 PM,69.8,59.0,68,29.80,10.0,SSE,6.9,-,N/A,,Clear,160,2012-12-10 21:55:00
5:15 PM,68.0,59.0,73,29.80,10.0,SSE,6.9,-,N/A,,Clear,160,2012-12-10 22:15:00
5:35 PM,68.0,59.0,73,29.80,10.0,SSE,8.1,-,N/A,,Clear,150,2012-12-10 22:35:00
5:55 PM,66.2,59.0,78,29.81,10.0,SSE,5.8,-,N/A,,Clear,160,2012-12-10 22:55:00
6:15 PM,66.2,59.0,78,29.82,10.0,South,6.9,-,N/A,,Clear,170,2012-12-10 23:15:00
6:35 PM,66.2,57.2,73,29.82,10.0,South,8.1,-,N/A,,Clear,170,2012-12-10 23:35:00
6:55 PM,64.4,55.4,73,29.81,10.0,South,6.9,-,N/A,,Clear,170,2012-12-10 23:55:00
7:15 PM,64.4,55.4,73,29.80,10.0,South,5.8,-,N/A,,Clear,180,2012-12-11 00:15:00
7:35 PM,62.6,55.4,77,29.80,10.0,SSE,4.6,-,N/A,,Clear,160,2012-12-11 00:35:00
7:55 PM,62.6,55.4,77,29.81,10.0,SSE,4.6,-,N/A,,Clear,160,2012-12-11 00:55:00
8:15 PM,62.6,55.4,77,29.81,10.0,South,4.6,-,N/A,,Clear,170,2012-12-11 01:15:00
8:35 PM,62.6,57.2,82,29.80,10.0,South,5.8,-,N/A,,Scattered Clouds,170,2012-12-11 01:35:00
8:55 PM,62.6,57.2,82,29.81,10.0,South,4.6,-,N/A,,Mostly Cloudy,180,2012-12-11 01:55:00
9:15 PM,60.8,57.2,88,29.81,10.0,SSE,3.5,-,N/A,,Mostly Cloudy,150,2012-12-11 02:15:00
9:35 PM,60.8,59.0,94,29.81,10.0,SSE,4.6,-,N/A,,Scattered Clouds,160,2012-12-11 02:35:00
9:55 PM,62.6,59.0,88,29.80,10.0,SSE,4.6,-,N/A,,Mostly Cloudy,160,2012-12-11 02:55:00
10:15 PM,60.8,59.0,94,29.80,10.0,SSE,3.5,-,N/A,,Scattered Clouds,150,2012-12-11 03:15:00
10:35 PM,60.8,60.8,100,29.80,10.0,SSE,3.5,-,N/A,,Clear,160,2012-12-11 03:35:00
10:55 PM,60.8,60.8,100,29.80,10.0,SSE,3.5,-,N/A,,Clear,160,2012-12-11 03:55:00
11:15 PM,60.8,60.8,100,29.80,10.0,South,3.5,-,N/A,,Mostly Cloudy,170,2012-12-11 04:15:00
11:35 PM,60.8,60.8,100,29.80,10.0,South,3.5,-,N/A,,Overcast,180,2012-12-11 04:35:00
11:55 PM,62.6,62.6,100,29.80,10.0,South,6.9,-,N/A,,Mostly Cloudy,180,2012-12-11 04:55:00